Time;durP1;ratioP1;P1;durP2;ratioP2;P2;SDS_P1;SDS_P2;PMS_P1;PMS_P2;Temp;Humidity;BMP_temperature;BMP_pressure;BME280_temperature;BME280_humidity;BME280_pressure;Samples;Min_cycle;Max_cycle;Signal;HPM_P1;HPM_P2
2021/04/22 00:00:08;;;;;;;12.33;2.43;;;11.40;47.00;;;;;;5096134;28;20937;-67
2021/04/22 00:02:34;;;;;;;8.27;2.67;;;11.30;47.10;;;;;;5095323;28;20468;-67
2021/04/22 00:05:01;;;;;;;16.33;3.43;;;11.30;47.00;;;;;;5096599;28;20440;-67
2021/04/22 00:07:27;;;;;;;13.00;3.47;;;11.20;47.30;;;;;;5096126;28;20459;-67
2021/04/22 00:09:54;;;;;;;9.20;3.17;;;11.20;47.40;;;;;;5096141;28;20933;-67
2021/04/22 00:12:20;;;;;;;15.20;3.30;;;11.20;47.20;;;;;;5096176;28;20436;-67
2021/04/22 00:14:46;;;;;;;9.83;3.17;;;11.20;47.20;;;;;;5096146;28;20447;-67
2021/04/22 00:17:13;;;;;;;8.30;3.33;;;11.10;47.50;;;;;;5096393;28;20520;-67
2021/04/22 00:19:39;;;;;;;11.10;3.67;;;11.10;47.70;;;;;;5096034;28;20460;-67
2021/04/22 00:22:06;;;;;;;12.30;3.33;;;11.10;48.00;;;;;;5095880;28;20494;-67
2021/04/22 00:24:32;;;;;;;8.90;3.13;;;11.00;48.00;;;;;;5095954;28;20447;-67
2021/04/22 00:26:58;;;;;;;14.93;3.70;;;11.00;48.00;;;;;;5095800;28;20460;-67
2021/04/22 00:29:25;;;;;;;12.77;3.40;;;10.90;48.10;;;;;;5095878;28;20447;-67
2021/04/22 00:31:51;;;;;;;14.37;2.60;;;10.90;48.20;;;;;;5095804;28;20444;-67
2021/04/22 00:34:18;;;;;;;11.87;3.60;;;10.90;48.10;;;;;;5095771;28;20478;-67
2021/04/22 00:36:44;;;;;;;10.50;3.30;;;10.90;48.20;;;;;;5095381;28;20463;-67
2021/04/22 00:39:10;;;;;;;11.70;3.57;;;10.80;48.30;;;;;;5095658;28;20443;-67
2021/04/22 00:41:37;;;;;;;12.60;3.10;;;10.80;48.50;;;;;;5095543;28;20479;-67
2021/04/22 00:44:06;;;;;;;10.77;3.13;;;10.70;48.60;;;;;;5095560;28;20444;-67
2021/04/22 00:46:33;;;;;;;12.30;2.90;;;10.70;48.70;;;;;;5095422;28;20444;-67
2021/04/22 00:49:00;;;;;;;9.60;3.20;;;10.60;48.80;;;;;;5095498;28;20443;-67
2021/04/22 00:51:27;;;;;;;12.83;3.33;;;10.60;49.00;;;;;;5095413;28;20867;-67
2021/04/22 00:53:53;;;;;;;10.70;2.73;;;10.50;49.00;;;;;;5095101;28;20424;-67
2021/04/22 00:56:19;;;;;;;8.20;2.97;;;10.50;49.20;;;;;;5094960;28;20452;-67
2021/04/22 00:58:46;;;;;;;6.53;2.90;;;10.50;49.30;;;;;;5095242;28;20444;-67
2021/04/22 01:01:12;;;;;;;15.43;3.67;;;10.50;49.20;;;;;;5095254;28;20446;-67
2021/04/22 01:03:38;;;;;;;14.20;2.90;;;10.40;49.50;;;;;;5095093;28;20479;-67
2021/04/22 01:06:07;;;;;;;4.50;2.60;;;10.40;49.40;;;;;;5095172;28;20436;-67
2021/04/22 01:08:34;;;;;;;8.13;2.80;;;10.30;49.50;;;;;;5094681;28;20970;-67
2021/04/22 01:11:02;;;;;;;13.07;2.97;;;10.30;49.70;;;;;;5095054;28;20443;-67
2021/04/22 01:13:29;;;;;;;8.60;2.50;;;10.30;49.70;;;;;;5094869;28;20519;-67
2021/04/22 01:15:55;;;;;;;15.87;3.60;;;10.20;49.80;;;;;;5094927;28;20533;-67
2021/04/22 01:18:22;;;;;;;9.43;3.10;;;10.20;50.50;;;;;;5094847;28;20468;-67
2021/04/22 01:20:52;;;;;;;10.80;3.50;;;10.10;50.10;;;;;;5094606;28;20453;-67
2021/04/22 01:23:19;;;;;;;10.13;2.87;;;10.10;50.10;;;;;;5094838;28;20467;-67
2021/04/22 01:25:47;;;;;;;9.67;2.83;;;10.00;50.20;;;;;;5094735;28;20447;-67
2021/04/22 01:28:16;;;;;;;9.10;2.40;;;10.00;50.30;;;;;;5094299;28;20980;-67
2021/04/22 01:30:44;;;;;;;8.40;2.77;;;9.90;51.10;;;;;;5094728;28;20466;-67
2021/04/22 01:33:12;;;;;;;9.63;2.60;;;9.90;51.10;;;;;;5094638;28;20436;-67
2021/04/22 01:35:40;;;;;;;14.17;3.87;;;9.90;51.30;;;;;;5094277;28;20440;-67
2021/04/22 01:38:08;;;;;;;9.60;2.53;;;9.90;51.50;;;;;;5094425;28;20474;-67
2021/04/22 01:40:36;;;;;;;8.57;2.60;;;9.80;51.20;;;;;;5094176;28;20941;-67
2021/04/22 01:43:03;;;;;;;7.50;2.20;;;9.80;51.20;;;;;;5094420;28;21006;-67
2021/04/22 01:45:30;;;;;;;7.47;2.37;;;9.70;51.30;;;;;;5094117;28;21020;-67
2021/04/22 01:47:57;;;;;;;13.23;2.73;;;9.70;51.50;;;;;;5094295;28;20487;-67
2021/04/22 01:50:25;;;;;;;13.87;2.60;;;9.60;51.60;;;;;;5093997;28;20791;-67
2021/04/22 01:52:52;;;;;;;9.20;2.40;;;9.60;51.80;;;;;;5094160;28;20442;-67
2021/04/22 01:55:23;;;;;;;9.60;2.07;;;9.60;51.90;;;;;;5094246;28;20459;-67
2021/04/22 01:57:50;;;;;;;6.70;2.63;;;9.50;52.40;;;;;;5094128;28;20518;-67
2021/04/22 02:00:23;;;;;;;7.80;2.17;;;9.50;51.90;;;;;;5094124;28;20444;-67
2021/04/22 02:02:49;;;;;;;7.70;2.10;;;9.40;52.30;;;;;;5094108;28;20464;-67
2021/04/22 02:05:15;;;;;;;8.57;2.40;;;9.40;52.20;;;;;;5093840;28;20429;-67
2021/04/22 02:07:42;;;;;;;6.93;2.27;;;9.30;52.50;;;;;;5093642;28;20831;-67
2021/04/22 02:10:09;;;;;;;7.40;2.37;;;9.30;52.50;;;;;;5093965;28;20440;-67
2021/04/22 02:12:36;;;;;;;8.37;2.20;;;9.30;52.60;;;;;;5093903;28;20472;-67
2021/04/22 02:15:05;;;;;;;11.30;2.10;;;9.30;52.60;;;;;;5093910;28;20501;-67
2021/04/22 02:17:31;;;;;;;10.17;2.90;;;9.20;52.60;;;;;;5093757;28;20462;-67
2021/04/22 02:19:57;;;;;;;10.70;2.60;;;9.20;52.80;;;;;;5093796;28;20451;-67
2021/04/22 02:22:24;;;;;;;9.57;2.53;;;9.20;52.90;;;;;;5093363;28;21029;-67
2021/04/22 02:24:50;;;;;;;13.83;2.63;;;9.10;53.00;;;;;;5092985;28;20964;-67
2021/04/22 02:27:16;;;;;;;9.90;2.70;;;9.10;53.20;;;;;;5093671;28;20460;-67
2021/04/22 02:29:42;;;;;;;10.73;2.83;;;9.10;53.30;;;;;;5093400;28;20808;-67
2021/04/22 02:32:09;;;;;;;9.17;2.97;;;9.00;53.00;;;;;;5093649;28;20447;-67
2021/04/22 02:34:36;;;;;;;7.90;2.40;;;9.00;53.20;;;;;;5093655;28;20440;-67
2021/04/22 02:37:02;;;;;;;9.17;2.57;;;9.00;53.30;;;;;;5093597;28;20471;-67
2021/04/22 02:39:28;;;;;;;18.63;3.63;;;9.00;53.50;;;;;;5093631;28;20444;-67
2021/04/22 02:41:54;;;;;;;9.20;2.77;;;8.90;53.70;;;;;;5093483;28;20494;-67
2021/04/22 02:44:21;;;;;;;6.27;2.20;;;8.90;53.70;;;;;;5093773;28;20455;-67
2021/04/22 02:46:48;;;;;;;7.40;2.80;;;8.80;53.60;;;;;;5093437;28;20460;-67
2021/04/22 02:49:15;;;;;;;11.90;2.73;;;8.80;53.60;;;;;;5093503;28;20452;-67
2021/04/22 02:51:41;;;;;;;7.53;2.20;;;8.80;53.60;;;;;;5093455;28;20443;-67
2021/04/22 02:54:07;;;;;;;7.70;2.17;;;8.70;53.90;;;;;;5093452;28;20444;-67
2021/04/22 02:56:34;;;;;;;8.03;2.83;;;8.70;53.90;;;;;;5093319;28;20454;-67
2021/04/22 02:59:00;;;;;;;5.90;2.47;;;8.60;53.90;;;;;;5093408;28;20452;-67
2021/04/22 03:01:26;;;;;;;5.40;2.70;;;8.50;53.90;;;;;;5093358;28;20809;-67
2021/04/22 03:03:52;;;;;;;9.90;2.70;;;8.50;54.10;;;;;;5093208;28;20834;-67
2021/04/22 03:06:19;;;;;;;6.30;2.90;;;8.50;54.40;;;;;;5093338;28;20447;-67
2021/04/22 03:08:45;;;;;;;6.53;3.00;;;8.50;54.80;;;;;;5093335;28;21042;-67
2021/04/22 03:11:12;;;;;;;5.83;2.63;;;8.40;54.70;;;;;;5094108;28;20788;-67
2021/04/22 03:13:38;;;;;;;5.17;2.30;;;8.40;54.50;;;;;;5093282;28;20436;-67
2021/04/22 03:16:06;;;;;;;6.17;2.60;;;8.30;54.40;;;;;;5093253;28;20858;-67
2021/04/22 03:18:32;;;;;;;7.27;2.30;;;8.30;54.50;;;;;;5093177;28;20459;-67
2021/04/22 03:20:58;;;;;;;8.43;2.30;;;8.20;54.50;;;;;;5093241;28;20451;-67
2021/04/22 03:23:25;;;;;;;7.93;2.37;;;8.20;54.60;;;;;;5093058;28;20479;-67
2021/04/22 03:25:52;;;;;;;7.73;2.80;;;8.20;54.70;;;;;;5093188;28;20478;-67
2021/04/22 03:28:18;;;;;;;9.47;2.37;;;8.20;55.00;;;;;;5093074;28;20462;-67
2021/04/22 03:30:44;;;;;;;4.47;2.57;;;8.10;55.10;;;;;;5093116;28;20451;-67
2021/04/22 03:33:10;;;;;;;8.50;2.53;;;8.10;55.00;;;;;;5093340;28;20933;-67
2021/04/22 03:35:37;;;;;;;9.17;2.70;;;8.00;55.00;;;;;;5093040;28;20451;-67
2021/04/22 03:38:03;;;;;;;7.00;2.70;;;8.00;55.10;;;;;;5095608;28;20467;-67
2021/04/22 03:40:30;;;;;;;7.50;2.47;;;7.90;55.20;;;;;;5096818;28;20852;-67
2021/04/22 03:42:56;;;;;;;9.10;2.70;;;7.90;55.40;;;;;;5096637;28;20984;-67
2021/04/22 03:45:24;;;;;;;8.40;2.77;;;7.90;55.60;;;;;;5096736;28;20457;-67
2021/04/22 03:47:51;;;;;;;10.63;3.40;;;7.80;55.60;;;;;;5096605;28;20464;-67
2021/04/22 03:50:19;;;;;;;10.87;2.73;;;7.80;55.70;;;;;;5096804;28;20435;-67
2021/04/22 03:52:48;;;;;;;5.77;2.40;;;7.80;55.90;;;;;;5096545;28;20455;-67
2021/04/22 03:55:16;;;;;;;8.37;2.70;;;7.80;55.90;;;;;;5096413;28;20458;-67
2021/04/22 03:57:43;;;;;;;7.83;3.10;;;7.70;55.70;;;;;;5096397;28;20480;-67
2021/04/22 04:00:11;;;;;;;8.97;2.80;;;7.70;56.00;;;;;;5096413;28;20501;-66
2021/04/22 04:02:38;;;;;;;8.73;2.47;;;7.70;56.40;;;;;;5096238;28;20479;-66
2021/04/22 04:05:05;;;;;;;8.87;2.93;;;7.70;56.50;;;;;;5096284;28;20452;-67
2021/04/22 04:07:31;;;;;;;7.63;2.50;;;7.70;56.50;;;;;;5096233;28;20833;-67
2021/04/22 04:09:57;;;;;;;7.20;2.80;;;7.70;56.50;;;;;;5096284;28;20440;-67
2021/04/22 04:12:24;;;;;;;11.67;2.83;;;7.60;56.50;;;;;;5095837;28;20439;-67
2021/04/22 04:14:51;;;;;;;12.20;2.70;;;7.60;56.70;;;;;;5096194;28;20446;-67
2021/04/22 04:17:17;;;;;;;15.40;3.40;;;7.50;56.70;;;;;;5096067;28;20467;-66
2021/04/22 04:19:43;;;;;;;6.97;2.60;;;7.50;56.90;;;;;;5096061;28;20475;-66
2021/04/22 04:22:10;;;;;;;8.83;2.83;;;7.50;56.90;;;;;;5095945;28;20446;-67
2021/04/22 04:24:36;;;;;;;7.70;2.40;;;7.50;57.00;;;;;;5095648;28;20948;-66
2021/04/22 04:27:02;;;;;;;7.40;2.70;;;7.40;56.90;;;;;;5095835;28;20463;-67
2021/04/22 04:29:28;;;;;;;7.40;2.50;;;7.40;57.00;;;;;;5095853;28;20440;-66
2021/04/22 04:31:56;;;;;;;4.80;2.00;;;7.40;57.10;;;;;;5096028;28;20455;-66
2021/04/22 04:34:22;;;;;;;12.60;3.00;;;7.40;57.20;;;;;;5095519;28;20430;-66
2021/04/22 04:36:48;;;;;;;7.47;2.23;;;7.40;57.30;;;;;;5095673;28;20467;-67
2021/04/22 04:39:15;;;;;;;8.90;2.80;;;7.30;57.40;;;;;;5095745;28;20840;-66
2021/04/22 04:41:41;;;;;;;8.87;3.20;;;7.40;57.70;;;;;;5095658;28;20448;-66
2021/04/22 04:44:08;;;;;;;8.50;3.90;;;7.30;57.60;;;;;;5095190;28;20816;-66
2021/04/22 04:46:35;;;;;;;6.50;3.60;;;7.30;57.80;;;;;;5095099;28;21026;-67
2021/04/22 04:49:03;;;;;;;8.77;2.30;;;7.30;57.80;;;;;;5095026;28;20444;-66
2021/04/22 04:51:30;;;;;;;11.67;3.57;;;7.30;57.90;;;;;;5095389;28;20817;-66
2021/04/22 04:53:56;;;;;;;7.80;2.60;;;7.30;58.00;;;;;;5095404;28;20420;-66
2021/04/22 04:56:22;;;;;;;10.50;3.33;;;7.30;58.00;;;;;;5095103;28;20860;-66
2021/04/22 04:58:49;;;;;;;8.07;3.70;;;7.30;58.30;;;;;;5095254;28;20450;-66
2021/04/22 05:01:16;;;;;;;8.90;2.33;;;7.30;58.40;;;;;;5095183;28;20450;-66
2021/04/22 05:03:43;;;;;;;4.23;2.43;;;7.40;58.50;;;;;;5095120;28;20479;-67
2021/04/22 05:06:10;;;;;;;13.50;2.70;;;7.30;58.60;;;;;;5095167;28;20443;-66
2021/04/22 05:08:36;;;;;;;8.90;2.50;;;7.30;58.80;;;;;;5095018;28;20464;-66
2021/04/22 05:11:03;;;;;;;9.70;3.13;;;7.20;59.00;;;;;;5094722;28;20452;-66
2021/04/22 05:13:29;;;;;;;9.43;3.00;;;7.20;59.30;;;;;;5095034;28;20420;-66
2021/04/22 05:15:56;;;;;;;5.00;2.40;;;7.20;59.30;;;;;;5095002;28;20450;-67
2021/04/22 05:18:23;;;;;;;5.43;2.43;;;7.20;59.80;;;;;;5094894;28;20463;-66
2021/04/22 05:20:49;;;;;;;9.33;2.87;;;7.30;59.90;;;;;;5094542;28;20448;-67
2021/04/22 05:23:16;;;;;;;10.03;2.97;;;7.30;60.00;;;;;;5094457;28;20845;-66
2021/04/22 05:25:42;;;;;;;6.60;3.03;;;7.30;60.40;;;;;;5094795;28;20444;-66
2021/04/22 05:28:08;;;;;;;8.80;3.50;;;7.40;60.80;;;;;;5094700;28;20468;-67
2021/04/22 05:30:35;;;;;;;16.33;3.97;;;7.40;61.00;;;;;;5094959;28;20473;-66
2021/04/22 05:33:01;;;;;;;14.47;3.90;;;7.40;61.20;;;;;;5094472;28;20901;-66
2021/04/22 05:35:27;;;;;;;14.47;3.50;;;7.50;61.60;;;;;;5094527;28;20968;-66
2021/04/22 05:37:54;;;;;;;12.77;3.60;;;7.50;61.50;;;;;;5094224;28;20969;-66
2021/04/22 05:40:21;;;;;;;11.23;3.57;;;7.60;61.50;;;;;;5094742;28;20439;-66
2021/04/22 05:42:48;;;;;;;11.80;4.57;;;7.70;61.50;;;;;;5094385;28;20483;-66
2021/04/22 05:45:16;;;;;;;10.10;3.87;;;7.70;61.30;;;;;;5094358;28;20458;-66
2021/04/22 05:47:43;;;;;;;16.33;4.23;;;7.80;61.80;;;;;;5094399;28;20546;-66
2021/04/22 05:50:11;;;;;;;10.90;4.50;;;7.90;61.90;;;;;;5094059;28;20454;-66
2021/04/22 05:52:37;;;;;;;14.33;4.67;;;8.00;60.90;;;;;;5094314;28;20813;-67
2021/04/22 05:55:04;;;;;;;9.70;4.00;;;8.00;60.60;;;;;;5094259;28;20432;-66
2021/04/22 05:57:31;;;;;;;16.03;5.10;;;8.10;60.80;;;;;;5094126;28;20463;-66
2021/04/22 05:59:58;;;;;;;17.23;4.70;;;8.20;60.70;;;;;;5093410;28;20447;-66
2021/04/22 06:02:25;;;;;;;28.53;5.00;;;8.30;60.90;;;;;;5094073;28;20476;-67
2021/04/22 06:04:51;;;;;;;20.37;4.80;;;8.30;60.60;;;;;;5094036;28;20493;-66
2021/04/22 06:07:18;;;;;;;13.17;5.40;;;8.30;60.60;;;;;;5094170;28;20471;-67
2021/04/22 06:09:44;;;;;;;11.47;4.60;;;8.30;60.60;;;;;;5094011;28;20451;-67
2021/04/22 06:12:11;;;;;;;16.80;5.80;;;8.30;60.70;;;;;;5093932;28;20843;-66
2021/04/22 06:14:38;;;;;;;19.10;5.23;;;8.40;61.00;;;;;;5093721;28;20450;-67
2021/04/22 06:17:04;;;;;;;17.50;5.33;;;8.50;61.70;;;;;;5093861;28;20470;-66
2021/04/22 06:19:30;;;;;;;15.23;6.20;;;8.50;60.90;;;;;;5094007;28;20441;-67
2021/04/22 06:21:56;;;;;;;15.80;5.97;;;8.60;60.90;;;;;;5094261;28;20436;-67
2021/04/22 06:24:23;;;;;;;15.20;5.70;;;8.60;60.30;;;;;;5093795;28;20468;-67
2021/04/22 06:26:49;;;;;;;16.60;6.10;;;8.70;61.00;;;;;;5093845;28;20475;-67
2021/04/22 06:29:16;;;;;;;15.37;5.10;;;8.70;60.50;;;;;;5093661;28;20464;-67
2021/04/22 06:31:45;;;;;;;25.77;7.50;;;8.70;60.30;;;;;;5093693;28;20463;-67
2021/04/22 06:34:11;;;;;;;19.83;5.93;;;8.70;60.70;;;;;;5094071;28;20500;-67
2021/04/22 06:36:37;;;;;;;18.70;5.90;;;8.80;60.50;;;;;;5093510;28;20444;-67
2021/04/22 06:39:04;;;;;;;15.60;7.20;;;8.90;60.10;;;;;;5093601;28;20468;-67
2021/04/22 06:41:30;;;;;;;16.27;5.80;;;9.00;59.60;;;;;;5093211;28;20454;-67
2021/04/22 06:43:57;;;;;;;18.47;6.07;;;9.10;59.90;;;;;;5093094;28;20485;-67
2021/04/22 06:46:23;;;;;;;12.23;5.30;;;9.20;59.10;;;;;;5093414;28;20449;-67
2021/04/22 06:48:51;;;;;;;14.23;4.83;;;9.30;59.20;;;;;;5093536;28;20430;-67
2021/04/22 06:51:18;;;;;;;15.80;5.80;;;9.40;59.20;;;;;;5093456;28;20470;-67
2021/04/22 06:53:44;;;;;;;13.47;6.67;;;9.50;59.20;;;;;;5093485;28;20495;-67
2021/04/22 06:56:10;;;;;;;15.50;5.83;;;9.60;58.50;;;;;;5093062;28;20509;-67
2021/04/22 06:58:36;;;;;;;20.97;5.87;;;9.60;57.40;;;;;;5092985;28;21014;-67
2021/04/22 07:01:03;;;;;;;14.23;6.03;;;9.70;58.00;;;;;;5093595;28;20420;-67
2021/04/22 07:03:29;;;;;;;20.40;6.57;;;9.80;57.70;;;;;;5093274;28;20475;-67
2021/04/22 07:05:56;;;;;;;15.50;5.43;;;10.00;57.00;;;;;;5093432;28;20435;-67
2021/04/22 07:08:23;;;;;;;9.07;4.10;;;10.00;55.10;;;;;;5093216;28;20478;-67
2021/04/22 07:10:49;;;;;;;15.13;5.30;;;10.20;55.70;;;;;;5094051;28;20428;-67
2021/04/22 07:13:15;;;;;;;14.60;4.53;;;10.30;55.80;;;;;;5097417;28;20889;-67
2021/04/22 07:15:42;;;;;;;15.63;5.00;;;10.40;55.70;;;;;;5097353;28;20424;-67
2021/04/22 07:18:11;;;;;;;11.60;4.60;;;10.50;55.60;;;;;;5096874;28;20976;-67
2021/04/22 07:20:38;;;;;;;14.17;4.27;;;10.60;55.20;;;;;;5097207;28;20515;-67
2021/04/22 07:23:05;;;;;;;14.80;5.47;;;10.80;54.80;;;;;;5097075;28;20459;-67
2021/04/22 07:25:33;;;;;;;17.40;5.33;;;10.90;52.60;;;;;;5097355;28;20432;-67
2021/04/22 07:28:00;;;;;;;12.23;4.20;;;11.00;52.60;;;;;;5096957;28;20983;-67
2021/04/22 07:30:26;;;;;;;12.20;3.90;;;11.10;53.00;;;;;;5097030;28;20504;-67
2021/04/22 07:32:53;;;;;;;12.57;4.77;;;11.20;51.80;;;;;;5096979;28;20436;-67
2021/04/22 07:35:19;;;;;;;19.33;4.47;;;11.40;52.00;;;;;;5096623;28;20898;-67
2021/04/22 07:37:46;;;;;;;9.00;4.13;;;11.50;51.40;;;;;;5096531;28;20980;-67
2021/04/22 07:40:17;;;;;;;12.13;3.83;;;11.70;51.20;;;;;;5097300;28;20856;-67
2021/04/22 07:42:43;;;;;;;12.60;3.70;;;11.90;50.60;;;;;;5096718;28;20467;-67
2021/04/22 07:45:11;;;;;;;10.30;4.03;;;12.10;49.70;;;;;;5096796;28;20424;-67
2021/04/22 07:47:37;;;;;;;12.27;3.70;;;12.20;50.30;;;;;;5096272;28;20467;-67
2021/04/22 07:50:06;;;;;;;16.07;4.07;;;12.40;49.00;;;;;;5096656;28;20427;-67
2021/04/22 07:52:32;;;;;;;6.07;2.90;;;12.50;48.10;;;;;;5096586;28;20427;-67
2021/04/22 07:54:58;;;;;;;12.47;4.50;;;12.70;46.70;;;;;;5096507;28;20451;-67
2021/04/22 07:57:25;;;;;;;10.83;3.63;;;12.80;47.10;;;;;;5096812;28;20558;-67
2021/04/22 07:59:52;;;;;;;7.80;3.40;;;13.00;47.30;;;;;;5096436;28;20891;-67
2021/04/22 08:02:18;;;;;;;10.80;4.10;;;13.30;46.60;;;;;;5096544;28;20439;-67
2021/04/22 08:04:44;;;;;;;9.30;3.00;;;13.60;45.80;;;;;;5096344;28;20481;-67
2021/04/22 08:07:10;;;;;;;14.90;3.07;;;13.90;44.50;;;;;;5096260;28;20467;-67
2021/04/22 08:09:37;;;;;;;8.33;2.60;;;14.10;44.80;;;;;;5096229;28;20493;-67
2021/04/22 08:12:05;;;;;;;8.53;3.00;;;14.20;42.70;;;;;;5096538;28;20431;-67
2021/04/22 08:14:32;;;;;;;7.23;2.73;;;14.00;42.50;;;;;;5096223;28;20489;-67
2021/04/22 08:16:59;;;;;;;10.70;4.00;;;14.00;43.60;;;;;;5096040;28;20468;-67
2021/04/22 08:19:25;;;;;;;9.40;3.60;;;14.20;43.70;;;;;;5095998;28;20436;-67
2021/04/22 08:21:51;;;;;;;13.30;3.30;;;14.40;43.70;;;;;;5095919;28;20447;-67
2021/04/22 08:24:17;;;;;;;10.93;3.60;;;14.50;43.30;;;;;;5095096;28;20502;-67
2021/04/22 08:26:44;;;;;;;8.93;3.07;;;14.50;42.60;;;;;;5095856;28;20871;-67
2021/04/22 08:29:11;;;;;;;9.60;3.70;;;14.60;42.00;;;;;;5095872;28;20564;-67
2021/04/22 08:31:38;;;;;;;14.10;3.10;;;14.70;41.90;;;;;;5095840;28;20439;-67
2021/04/22 08:34:08;;;;;;;14.50;3.60;;;14.70;41.50;;;;;;5095772;28;20435;-67
2021/04/22 08:36:35;;;;;;;10.70;3.37;;;14.70;41.30;;;;;;5095615;28;20987;-67
2021/04/22 08:39:02;;;;;;;10.77;3.50;;;14.70;41.20;;;;;;5095500;28;20928;-67
2021/04/22 08:41:28;;;;;;;11.13;3.23;;;14.80;41.30;;;;;;5095625;28;20473;-67
2021/04/22 08:43:54;;;;;;;13.40;4.17;;;14.90;41.00;;;;;;5095453;28;20529;-67
2021/04/22 08:46:23;;;;;;;11.17;3.70;;;15.10;41.70;;;;;;5095589;28;20428;-67
2021/04/22 08:48:52;;;;;;;9.13;3.67;;;15.40;41.60;;;;;;5095724;28;20455;-67
2021/04/22 08:51:18;;;;;;;10.80;3.63;;;15.70;41.40;;;;;;5095373;28;20498;-67
2021/04/22 08:53:46;;;;;;;11.10;4.00;;;15.90;40.70;;;;;;5095129;28;20967;-67
2021/04/22 08:56:13;;;;;;;7.83;3.70;;;16.20;40.30;;;;;;5095134;28;20470;-67
2021/04/22 08:58:41;;;;;;;10.40;3.53;;;16.50;39.70;;;;;;5095239;28;20472;-67
2021/04/22 09:01:10;;;;;;;7.47;3.63;;;16.90;38.60;;;;;;5095316;28;20428;-67
2021/04/22 09:03:37;;;;;;;9.80;3.33;;;17.30;38.50;;;;;;5095121;28;21037;-67
2021/04/22 09:06:04;;;;;;;8.23;3.20;;;17.70;38.50;;;;;;5095254;28;20972;-68
2021/04/22 09:08:34;;;;;;;10.43;3.33;;;18.20;37.80;;;;;;5095131;28;20494;-68
2021/04/22 09:11:01;;;;;;;10.73;3.90;;;18.80;36.50;;;;;;5094836;28;20933;-68
2021/04/22 09:13:27;;;;;;;9.63;3.37;;;19.20;34.90;;;;;;5094791;28;20955;-68
2021/04/22 09:16:01;;;;;;;8.27;3.70;;;19.40;33.70;;;;;;5094959;28;20448;-67
2021/04/22 09:18:28;;;;;;;12.50;4.53;;;19.10;31.10;;;;;;5094645;28;21030;-68
2021/04/22 09:20:56;;;;;;;11.00;3.33;;;18.30;32.40;;;;;;5094859;28;20440;-68
2021/04/22 09:23:25;;;;;;;7.50;4.20;;;17.60;32.80;;;;;;5095035;28;20463;-67
2021/04/22 09:25:56;;;;;;;6.40;3.37;;;16.90;34.30;;;;;;5094803;28;20455;-67
2021/04/22 09:28:32;;;;;;;8.63;3.23;;;16.40;34.80;;;;;;5094720;28;20460;-67
2021/04/22 09:30:58;;;;;;;7.00;2.80;;;15.80;35.50;;;;;;5094505;28;20433;-67
2021/04/22 09:33:26;;;;;;;8.43;3.27;;;15.50;36.30;;;;;;5094696;28;20444;-67
2021/04/22 09:35:53;;;;;;;8.07;3.30;;;15.30;36.80;;;;;;5093314;28;20440;-67
2021/04/22 09:38:20;;;;;;;8.47;3.93;;;15.30;39.50;;;;;;5094259;28;21000;-67
2021/04/22 09:40:47;;;;;;;7.97;3.13;;;15.40;39.70;;;;;;5094579;28;20501;-67
2021/04/22 09:43:15;;;;;;;9.90;3.47;;;15.80;38.30;;;;;;5094362;28;20487;-67
2021/04/22 09:45:44;;;;;;;12.20;4.07;;;16.10;37.80;;;;;;5094249;28;20432;-67
2021/04/22 09:48:16;;;;;;;5.47;3.30;;;16.60;36.80;;;;;;5094005;28;20470;-67
2021/04/22 09:50:43;;;;;;;17.93;3.27;;;16.80;36.70;;;;;;5094395;28;20428;-67
2021/04/22 09:53:13;;;;;;;5.77;2.63;;;16.60;36.20;;;;;;5094328;28;20514;-67
2021/04/22 09:55:40;;;;;;;7.60;3.40;;;17.00;37.40;;;;;;5094164;28;20460;-67
2021/04/22 09:58:07;;;;;;;9.40;3.40;;;17.30;36.20;;;;;;5094157;28;20460;-67
2021/04/22 10:00:34;;;;;;;10.10;3.37;;;17.60;36.00;;;;;;5093885;28;20923;-67
2021/04/22 10:03:01;;;;;;;6.50;2.90;;;18.00;35.40;;;;;;5093992;28;20479;-67
2021/04/22 10:05:29;;;;;;;11.43;3.93;;;18.50;35.00;;;;;;5094105;28;20452;-67
2021/04/22 10:08:14;;;;;;;6.50;3.40;;;19.00;34.20;;;;;;5093978;28;20464;-67
2021/04/22 10:10:42;;;;;;;6.83;3.50;;;19.40;32.40;;;;;;5093716;28;20481;-67
2021/04/22 10:13:11;;;;;;;8.20;3.27;;;19.60;32.20;;;;;;5093953;28;20476;-67
2021/04/22 10:15:48;;;;;;;8.77;3.80;;;20.10;32.90;;;;;;5093941;28;20542;-67
2021/04/22 10:18:14;;;;;;;6.40;2.80;;;20.60;30.90;;;;;;5093823;28;20459;-68
2021/04/22 10:20:41;;;;;;;12.43;2.67;;;21.10;31.40;;;;;;5093834;28;20424;-68
2021/04/22 10:23:09;;;;;;;6.07;3.30;;;21.60;31.00;;;;;;5093774;28;20456;-68
2021/04/22 10:25:37;;;;;;;11.50;3.83;;;22.20;30.00;;;;;;5094683;28;20447;-68
2021/04/22 10:28:04;;;;;;;8.73;3.73;;;22.70;29.40;;;;;;5093675;28;20464;-67
2021/04/22 10:30:37;;;;;;;10.37;3.47;;;23.00;26.30;;;;;;5093818;28;20478;-68
2021/04/22 10:33:04;;;;;;;8.90;3.70;;;22.80;26.70;;;;;;5093743;28;20424;-67
2021/04/22 10:35:33;;;;;;;9.57;3.47;;;22.40;26.30;;;;;;5093281;28;20444;-67
2021/04/22 10:38:01;;;;;;;8.37;3.60;;;22.00;28.60;;;;;;5093564;28;20470;-67
2021/04/22 10:40:30;;;;;;;7.90;3.60;;;22.10;28.50;;;;;;5093665;28;20452;-67
2021/04/22 10:42:57;;;;;;;9.60;3.30;;;21.50;28.30;;;;;;5093186;28;20528;-67
2021/04/22 10:45:25;;;;;;;8.20;3.23;;;21.70;28.50;;;;;;5092835;28;20937;-67
2021/04/22 10:47:52;;;;;;;11.93;4.03;;;21.80;27.80;;;;;;5093455;28;20476;-67
2021/04/22 10:50:24;;;;;;;8.40;3.20;;;21.70;27.80;;;;;;5093705;28;20443;-67
2021/04/22 10:52:52;;;;;;;8.70;3.60;;;21.50;28.40;;;;;;5093784;28;20428;-67
2021/04/22 10:55:21;;;;;;;6.30;3.27;;;22.00;29.30;;;;;;5093421;28;20515;-68
2021/04/22 10:57:48;;;;;;;7.17;3.50;;;22.90;28.90;;;;;;5093519;28;20499;-68
2021/04/22 11:00:17;;;;;;;9.30;3.37;;;23.70;27.10;;;;;;5093463;28;20465;-68
2021/04/22 11:02:46;;;;;;;6.97;3.23;;;24.40;25.40;;;;;;5093381;28;20431;-68
2021/04/22 11:05:23;;;;;;;10.40;3.33;;;24.60;24.80;;;;;;5093181;28;20428;-68
2021/04/22 11:07:58;;;;;;;7.53;3.10;;;25.50;25.40;;;;;;5093341;28;20486;-68
2021/04/22 11:10:37;;;;;;;10.60;3.60;;;26.50;24.80;;;;;;5093436;28;20442;-68
2021/04/22 11:13:13;;;;;;;10.70;3.60;;;27.50;23.60;;;;;;5093382;28;20428;-68
2021/04/22 11:15:39;;;;;;;11.07;3.90;;;27.90;21.90;;;;;;5093585;28;20805;-68
2021/04/22 11:18:10;;;;;;;7.37;4.03;;;28.20;21.00;;;;;;5093272;28;20459;-68
2021/04/22 11:20:40;;;;;;;8.17;3.83;;;28.30;20.40;;;;;;5093277;28;20439;-68
2021/04/22 11:23:14;;;;;;;8.30;3.77;;;28.70;21.50;;;;;;5093223;28;20463;-68
2021/04/22 11:25:47;;;;;;;8.10;3.60;;;28.90;20.90;;;;;;5092952;28;20454;-68
2021/04/22 11:28:16;;;;;;;6.37;3.27;;;29.10;20.60;;;;;;5093183;28;20467;-68
2021/04/22 11:30:42;;;;;;;7.50;3.50;;;29.50;21.50;;;;;;5093385;28;20452;-68
2021/04/22 11:33:08;;;;;;;7.30;4.00;;;29.80;20.60;;;;;;5093188;28;20425;-68
2021/04/22 11:35:36;;;;;;;11.13;4.03;;;29.90;19.70;;;;;;5093193;28;20424;-68
2021/04/22 11:38:07;;;;;;;16.80;4.30;;;29.50;19.50;;;;;;5093060;28;20939;-68
2021/04/22 11:40:38;;;;;;;5.40;3.33;;;28.50;20.40;;;;;;5093077;28;20528;-68
2021/04/22 11:43:05;;;;;;;8.03;3.50;;;27.60;20.00;;;;;;5093023;28;20520;-68
2021/04/22 11:45:33;;;;;;;7.50;3.87;;;27.50;21.60;;;;;;5093080;28;20440;-68
2021/04/22 11:48:02;;;;;;;6.67;3.77;;;27.60;22.10;;;;;;5092903;28;20463;-68
2021/04/22 11:50:43;;;;;;;7.70;3.50;;;27.80;21.90;;;;;;5092661;28;20928;-68
2021/04/22 11:53:12;;;;;;;6.10;3.37;;;28.40;22.20;;;;;;5092917;28;20432;-68
2021/04/22 11:55:40;;;;;;;8.77;3.87;;;29.30;21.50;;;;;;5092741;28;20463;-68
2021/04/22 11:58:09;;;;;;;8.53;3.40;;;30.00;19.70;;;;;;5094643;28;20476;-68
2021/04/22 12:00:39;;;;;;;10.43;3.73;;;30.40;18.80;;;;;;5096510;28;20450;-68
2021/04/22 12:03:05;;;;;;;7.03;3.10;;;30.80;18.90;;;;;;5096329;28;20471;-68
2021/04/22 12:05:33;;;;;;;9.97;3.77;;;31.40;19.50;;;;;;5096397;28;20482;-68
2021/04/22 12:08:03;;;;;;;8.93;3.37;;;32.00;19.00;;;;;;5096215;28;20489;-68
2021/04/22 12:10:32;;;;;;;7.80;4.27;;;32.70;17.60;;;;;;5096244;28;20807;-68
2021/04/22 12:13:09;;;;;;;6.90;3.40;;;33.30;17.00;;;;;;5095693;28;20994;-68
2021/04/22 12:15:38;;;;;;;7.87;4.20;;;33.70;16.80;;;;;;5096630;28;20462;-68
2021/04/22 12:18:05;;;;;;;6.87;4.10;;;33.30;16.10;;;;;;5096536;28;20472;-68
2021/04/22 12:20:32;;;;;;;6.20;4.17;;;33.60;17.30;;;;;;5096066;28;20481;-69
2021/04/22 12:22:58;;;;;;;5.20;3.67;;;34.10;16.30;;;;;;5095551;28;20451;-69
2021/04/22 12:25:26;;;;;;;6.20;3.53;;;34.20;16.20;;;;;;5095556;28;20905;-69
2021/04/22 12:27:56;;;;;;;9.13;3.63;;;34.60;16.20;;;;;;5095642;28;20493;-69
2021/04/22 12:30:32;;;;;;;8.63;4.30;;;35.00;15.80;;;;;;5095749;28;20427;-69
2021/04/22 12:33:04;;;;;;;6.73;3.90;;;35.40;15.20;;;;;;5095358;28;20988;-69
2021/04/22 12:35:32;;;;;;;8.33;4.40;;;35.60;15.40;;;;;;5095651;28;20423;-69
2021/04/22 12:38:12;;;;;;;8.33;4.20;;;36.00;15.70;;;;;;5095470;28;20475;-69
2021/04/22 12:40:39;;;;;;;8.43;4.60;;;36.50;14.90;;;;;;5095504;28;20552;-69
2021/04/22 12:43:06;;;;;;;7.20;4.73;;;36.20;13.70;;;;;;5095512;28;20467;-69
2021/04/22 12:45:37;;;;;;;6.73;4.10;;;35.00;14.60;;;;;;5095741;28;20446;-69
2021/04/22 12:48:04;;;;;;;7.43;4.10;;;34.70;15.50;;;;;;5095566;28;20490;-69